Time;durP1;ratioP1;P1;durP2;ratioP2;P2;SDS_P1;SDS_P2;PMS_P1;PMS_P2;Temp;Humidity;BMP_temperature;BMP_pressure;BME280_temperature;BME280_humidity;BME280_pressure;Samples;Min_cycle;Max_cycle;Signal;HPM_P1;HPM_P2
2023/10/06 00:00:33;;;;;;;11.30;10.80;;;;;;;;;;5112258;28;20107;-64
2023/10/06 00:02:58;;;;;;;10.93;10.43;;;;;;;;;;5112718;27;20509;-64
2023/10/06 00:05:24;;;;;;;10.65;10.15;;;;;;;;;;5109903;28;20039;-66
2023/10/06 00:07:50;;;;;;;10.82;10.32;;;;;;;;;;5087347;28;20047;-65
2023/10/06 00:10:27;;;;;;;10.80;10.30;;;;;;;;;;5110320;27;20479;-65
2023/10/06 00:12:58;;;;;;;10.90;10.40;;;;;;;;;;5105387;27;20023;-65
2023/10/06 00:15:26;;;;;;;10.70;10.20;;;;;;;;;;5109927;28;20043;-65
2023/10/06 00:18:07;;;;;;;10.90;10.40;;;;;;;;;;5115383;27;20020;-65
2023/10/06 00:20:49;;;;;;;10.50;10.00;;;;;;;;;;5104785;28;20027;-64
2023/10/06 00:23:23;;;;;;;10.45;9.95;;;;;;;;;;5105914;28;20016;-65
2023/10/06 00:25:52;;;;;;;10.32;9.82;;;;;;;;;;5110205;27;20065;-64
2023/10/06 00:28:27;;;;;;;11.10;10.60;;;;;;;;;;5097885;28;20085;-65
2023/10/06 00:31:08;;;;;;;11.23;10.73;;;;;;;;;;5097718;28;20031;-65
2023/10/06 00:33:33;;;;;;;10.50;10.00;;;;;;;;;;5100583;28;20032;-65
2023/10/06 00:35:59;;;;;;;10.30;9.80;;;;;;;;;;5112182;27;20019;-64
2023/10/06 00:38:25;;;;;;;10.90;10.40;;;;;;;;;;5109509;27;20106;-65
2023/10/06 00:40:54;;;;;;;10.80;10.30;;;;;;;;;;5107007;27;20031;-64
2023/10/06 00:43:34;;;;;;;11.07;10.57;;;;;;;;;;5109346;27;20019;-65
2023/10/06 00:46:00;;;;;;;10.27;9.77;;;;;;;;;;5108113;27;20098;-65
2023/10/06 00:48:25;;;;;;;10.63;10.13;;;;;;;;;;5109750;27;20095;-64
2023/10/06 00:50:51;;;;;;;10.63;10.13;;;;;;;;;;5113293;27;20062;-64
2023/10/06 00:53:16;;;;;;;11.15;10.65;;;;;;;;;;5108656;28;20411;-65
2023/10/06 00:55:44;;;;;;;10.23;9.73;;;;;;;;;;5110302;27;20426;-64
2023/10/06 00:58:10;;;;;;;10.57;10.07;;;;;;;;;;5109065;27;20024;-65
2023/10/06 01:00:37;;;;;;;11.68;11.10;;;;;;;;;;5104663;27;20027;-65
2023/10/06 01:03:09;;;;;;;10.27;9.77;;;;;;;;;;5108239;28;20406;-65
2023/10/06 01:05:35;;;;;;;10.60;10.10;;;;;;;;;;5107568;27;20608;-65
2023/10/06 01:08:00;;;;;;;10.60;10.10;;;;;;;;;;5104414;27;20110;-65
2023/10/06 01:10:34;;;;;;;10.88;10.38;;;;;;;;;;5106108;28;20024;-65
2023/10/06 01:13:11;;;;;;;10.30;9.80;;;;;;;;;;5104640;27;20023;-65
2023/10/06 01:15:36;;;;;;;10.88;10.38;;;;;;;;;;5111193;27;20043;-65
2023/10/06 01:18:19;;;;;;;10.32;9.82;;;;;;;;;;5102018;28;20080;-65
2023/10/06 01:20:44;;;;;;;10.48;9.98;;;;;;;;;;5111911;27;20027;-65
2023/10/06 01:23:21;;;;;;;10.38;9.88;;;;;;;;;;5109180;27;20020;-65
2023/10/06 01:25:49;;;;;;;10.40;9.90;;;;;;;;;;5102253;28;20111;-65
2023/10/06 01:28:14;;;;;;;10.60;10.10;;;;;;;;;;5107165;27;20022;-64
2023/10/06 01:30:39;;;;;;;11.18;10.68;;;;;;;;;;5108905;27;20136;-65
2023/10/06 01:33:05;;;;;;;10.27;9.77;;;;;;;;;;5101360;28;20020;-66
2023/10/06 01:35:33;;;;;;;10.68;10.18;;;;;;;;;;5103054;28;20459;-66
2023/10/06 01:38:00;;;;;;;10.90;10.40;;;;;;;;;;5089981;28;20024;-64
2023/10/06 01:42:54;;;;;;;10.65;10.15;;;;;;;;;;5108688;28;20073;-66
2023/10/06 01:45:22;;;;;;;10.80;10.30;;;;;;;;;;5089987;27;20024;-65
2023/10/06 01:47:55;;;;;;;10.95;10.45;;;;;;;;;;5105026;27;20023;-64
2023/10/06 01:50:24;;;;;;;11.05;10.55;;;;;;;;;;5104026;28;20097;-64
2023/10/06 01:52:52;;;;;;;10.75;10.25;;;;;;;;;;5105331;28;20024;-64
2023/10/06 01:55:22;;;;;;;10.57;10.07;;;;;;;;;;5107440;27;20037;-65
2023/10/06 01:57:47;;;;;;;10.68;10.18;;;;;;;;;;5109183;27;20651;-64
2023/10/06 02:00:16;;;;;;;11.00;10.50;;;;;;;;;;5107644;28;20012;-65
2023/10/06 02:02:41;;;;;;;10.60;10.10;;;;;;;;;;5106952;27;20043;-65
2023/10/06 02:05:12;;;;;;;10.60;10.10;;;;;;;;;;5104583;27;20056;-65
2023/10/06 02:07:39;;;;;;;10.80;10.30;;;;;;;;;;5094497;28;20062;-65
2023/10/06 02:10:11;;;;;;;10.13;9.70;;;;;;;;;;5108015;27;20075;-65
2023/10/06 02:12:37;;;;;;;10.40;9.90;;;;;;;;;;5106049;28;20427;-65
2023/10/06 02:15:10;;;;;;;10.60;10.10;;;;;;;;;;5105312;28;20062;-65
2023/10/06 02:17:36;;;;;;;10.77;10.27;;;;;;;;;;5107194;28;20019;-64
2023/10/06 02:20:01;;;;;;;10.75;10.25;;;;;;;;;;5109090;27;20042;-65
2023/10/06 02:22:27;;;;;;;10.70;10.20;;;;;;;;;;5102263;28;20118;-66
2023/10/06 02:24:52;;;;;;;10.40;9.90;;;;;;;;;;5108599;28;20028;-65
2023/10/06 02:27:18;;;;;;;10.80;10.30;;;;;;;;;;5112746;28;20046;-64
2023/10/06 02:29:43;;;;;;;10.90;10.40;;;;;;;;;;5103943;28;20030;-64
2023/10/06 02:32:08;;;;;;;10.77;10.27;;;;;;;;;;5109264;28;20015;-65
2023/10/06 02:34:38;;;;;;;11.02;10.52;;;;;;;;;;5108786;28;20023;-65
2023/10/06 02:37:04;;;;;;;10.55;10.05;;;;;;;;;;5111443;28;20497;-65
2023/10/06 02:39:33;;;;;;;10.77;10.27;;;;;;;;;;5107984;28;20024;-65
2023/10/06 02:42:01;;;;;;;10.27;9.77;;;;;;;;;;5109202;28;20086;-66
2023/10/06 02:44:29;;;;;;;10.45;9.95;;;;;;;;;;5104082;28;20026;-64
2023/10/06 02:46:55;;;;;;;10.70;10.20;;;;;;;;;;5105191;28;20016;-65
2023/10/06 02:49:24;;;;;;;11.15;10.65;;;;;;;;;;5109424;28;20493;-66
2023/10/06 02:51:50;;;;;;;10.90;10.40;;;;;;;;;;5106862;28;20042;-66
2023/10/06 02:56:43;;;;;;;10.40;9.90;;;;;;;;;;5108616;28;20461;-65
2023/10/06 02:59:34;;;;;;;10.73;10.23;;;;;;;;;;5108931;28;20031;-65
2023/10/06 03:02:06;;;;;;;10.90;10.40;;;;;;;;;;5100126;28;20020;-64
2023/10/06 03:04:35;;;;;;;;;;;;;;;;;;5092769;28;20016;-66
2023/10/06 03:07:01;;;;;;;10.90;10.40;;;;;;;;;;5096818;28;19966;-64
2023/10/06 03:09:43;;;;;;;11.10;10.60;;;;;;;;;;5102922;28;20055;-66
2023/10/06 03:12:15;;;;;;;10.80;10.30;;;;;;;;;;5106842;28;20031;-64
2023/10/06 03:14:41;;;;;;;10.70;10.20;;;;;;;;;;5108021;28;20685;-65
2023/10/06 03:17:08;;;;;;;11.55;10.98;;;;;;;;;;5106590;28;20024;-64
2023/10/06 03:19:33;;;;;;;10.82;10.32;;;;;;;;;;5109289;27;20022;-65
2023/10/06 03:22:04;;;;;;;10.77;10.27;;;;;;;;;;5108394;28;20454;-65
2023/10/06 03:24:33;;;;;;;11.07;10.57;;;;;;;;;;5107357;27;20383;-65
2023/10/06 03:26:59;;;;;;;11.23;10.73;;;;;;;;;;5112784;27;20467;-65
2023/10/06 03:29:46;;;;;;;10.52;10.02;;;;;;;;;;5091395;28;20055;-65
2023/10/06 03:32:18;;;;;;;10.80;10.30;;;;;;;;;;5113507;27;20369;-65
2023/10/06 03:34:44;;;;;;;10.50;10.00;;;;;;;;;;5106425;28;20444;-67
2023/10/06 03:37:10;;;;;;;10.63;10.13;;;;;;;;;;5104034;28;20028;-65
2023/10/06 03:39:47;;;;;;;10.60;10.10;;;;;;;;;;5111122;28;20018;-66
2023/10/06 03:42:17;;;;;;;10.60;10.10;;;;;;;;;;5111258;28;20579;-64
2023/10/06 03:44:45;;;;;;;10.98;10.48;;;;;;;;;;5106594;28;20023;-64
2023/10/06 03:47:10;;;;;;;11.40;10.82;;;;;;;;;;5112606;28;20026;-66
2023/10/06 03:49:37;;;;;;;10.85;10.35;;;;;;;;;;5112312;28;20019;-64
2023/10/06 03:52:03;;;;;;;10.45;9.95;;;;;;;;;;5113022;27;20137;-66
2023/10/06 03:54:29;;;;;;;10.85;10.35;;;;;;;;;;5104828;28;20106;-65
2023/10/06 03:56:55;;;;;;;10.68;10.18;;;;;;;;;;5092382;28;20487;-65
2023/10/06 03:59:22;;;;;;;11.05;10.55;;;;;;;;;;5107566;27;20077;-65
2023/10/06 04:01:48;;;;;;;11.15;10.65;;;;;;;;;;5107650;27;20102;-66
2023/10/06 04:04:22;;;;;;;10.80;10.30;;;;;;;;;;5100888;28;20170;-67
2023/10/06 04:06:47;;;;;;;10.63;10.13;;;;;;;;;;5105701;27;20051;-65
2023/10/06 04:09:19;;;;;;;11.80;11.20;;;;;;;;;;5105526;28;20016;-65
2023/10/06 04:11:44;;;;;;;10.52;10.02;;;;;;;;;;5109939;28;20024;-66
2023/10/06 04:14:10;;;;;;;11.02;10.52;;;;;;;;;;5091577;28;20023;-65
2023/10/06 04:16:44;;;;;;;10.75;10.25;;;;;;;;;;5108176;27;20024;-66
2023/10/06 04:19:09;;;;;;;10.27;9.77;;;;;;;;;;5092669;28;20074;-65
2023/10/06 04:21:34;;;;;;;10.40;9.90;;;;;;;;;;5111324;27;20591;-65
2023/10/06 04:24:00;;;;;;;10.30;9.80;;;;;;;;;;5105417;27;20391;-65
2023/10/06 04:26:25;;;;;;;11.38;10.77;;;;;;;;;;5087316;28;20115;-64
2023/10/06 04:28:51;;;;;;;11.07;10.57;;;;;;;;;;5107746;27;20031;-64
2023/10/06 04:31:16;;;;;;;10.63;10.13;;;;;;;;;;5103754;28;20032;-63
2023/10/06 04:33:41;;;;;;;11.90;11.30;;;;;;;;;;5106265;27;21339;-64
2023/10/06 04:36:11;;;;;;;12.18;11.57;;;;;;;;;;5106338;28;20099;-64
2023/10/06 04:38:40;;;;;;;11.52;10.95;;;;;;;;;;5087440;28;20027;-64
2023/10/06 04:41:08;;;;;;;10.93;10.43;;;;;;;;;;5090717;27;20046;-65
2023/10/06 04:43:35;;;;;;;10.32;9.82;;;;;;;;;;5107956;27;20020;-64
2023/10/06 04:46:00;;;;;;;11.00;10.50;;;;;;;;;;5107176;28;20016;-65
2023/10/06 04:48:25;;;;;;;10.13;9.70;;;;;;;;;;5105567;28;20034;-65
2023/10/06 04:50:51;;;;;;;11.05;10.55;;;;;;;;;;5100782;28;20106;-65
2023/10/06 04:53:17;;;;;;;11.07;10.57;;;;;;;;;;5100887;28;20024;-65
2023/10/06 04:55:42;;;;;;;10.80;10.30;;;;;;;;;;5089773;28;20107;-65
2023/10/06 04:58:09;;;;;;;11.10;10.60;;;;;;;;;;5103804;28;20035;-64
2023/10/06 05:00:34;;;;;;;11.30;10.80;;;;;;;;;;5105189;27;20024;-65
2023/10/06 05:02:59;;;;;;;11.23;10.73;;;;;;;;;;5093995;28;20019;-63
2023/10/06 05:05:26;;;;;;;11.45;10.95;;;;;;;;;;5101525;28;20075;-64
2023/10/06 05:07:53;;;;;;;11.30;10.80;;;;;;;;;;5111966;27;20030;-64
2023/10/06 05:10:21;;;;;;;11.55;11.05;;;;;;;;;;5105551;28;20028;-63
2023/10/06 05:12:50;;;;;;;11.35;10.85;;;;;;;;;;5104642;28;20019;-64
2023/10/06 05:15:30;;;;;;;11.70;11.20;;;;;;;;;;5102181;28;20028;-64
2023/10/06 05:18:00;;;;;;;11.60;11.10;;;;;;;;;;5084865;27;20433;-65
2023/10/06 05:20:29;;;;;;;11.77;11.27;;;;;;;;;;5101334;28;20020;-64
2023/10/06 05:23:09;;;;;;;11.50;11.00;;;;;;;;;;5105235;28;20020;-64
2023/10/06 05:25:34;;;;;;;11.13;10.63;;;;;;;;;;5108505;27;20549;-65
2023/10/06 05:28:00;;;;;;;11.48;10.98;;;;;;;;;;5110221;27;20185;-64
2023/10/06 05:30:26;;;;;;;11.75;11.25;;;;;;;;;;5098830;28;20387;-65
2023/10/06 05:32:52;;;;;;;11.45;10.95;;;;;;;;;;5099166;27;20036;-64
2023/10/06 05:35:20;;;;;;;11.60;11.10;;;;;;;;;;5110755;27;20084;-63
2023/10/06 05:37:46;;;;;;;11.75;11.25;;;;;;;;;;5107556;27;20104;-64
2023/10/06 05:40:12;;;;;;;11.57;11.07;;;;;;;;;;5110804;28;20065;-65
2023/10/06 05:42:40;;;;;;;11.50;11.00;;;;;;;;;;5103820;28;20481;-67
2023/10/06 05:45:15;;;;;;;11.73;11.23;;;;;;;;;;5106506;27;21263;-67
2023/10/06 05:47:41;;;;;;;11.60;11.10;;;;;;;;;;5109770;27;20022;-66
2023/10/06 05:50:08;;;;;;;12.07;11.57;;;;;;;;;;5111699;27;20184;-65
2023/10/06 05:52:38;;;;;;;11.48;10.98;;;;;;;;;;5107727;27;20027;-67
2023/10/06 05:55:08;;;;;;;11.32;10.82;;;;;;;;;;5087311;27;20398;-67
2023/10/06 05:57:37;;;;;;;11.48;10.98;;;;;;;;;;5110894;27;20073;-66
2023/10/06 06:00:06;;;;;;;11.48;10.98;;;;;;;;;;5102495;27;20031;-68
2023/10/06 06:02:36;;;;;;;10.95;10.45;;;;;;;;;;5087883;28;20115;-65
2023/10/06 06:05:04;;;;;;;11.20;10.70;;;;;;;;;;5092055;28;20042;-66
2023/10/06 06:07:30;;;;;;;11.48;10.98;;;;;;;;;;5110678;27;20482;-66
2023/10/06 06:09:55;;;;;;;11.10;10.60;;;;;;;;;;5098472;28;20023;-66
2023/10/06 06:12:21;;;;;;;11.20;10.70;;;;;;;;;;5105426;27;20031;-66
2023/10/06 06:14:47;;;;;;;11.60;11.10;;;;;;;;;;5105664;28;20558;-67
2023/10/06 06:17:12;;;;;;;11.30;10.80;;;;;;;;;;5101637;28;20102;-67
2023/10/06 06:19:39;;;;;;;11.52;11.02;;;;;;;;;;5104069;28;20403;-66
2023/10/06 06:22:05;;;;;;;11.15;10.65;;;;;;;;;;5085943;28;20073;-66
2023/10/06 06:24:31;;;;;;;11.50;11.00;;;;;;;;;;5109594;28;20034;-67
2023/10/06 06:26:56;;;;;;;11.38;10.88;;;;;;;;;;5101193;27;20020;-65
2023/10/06 06:29:22;;;;;;;11.70;11.20;;;;;;;;;;5107546;28;20091;-66
2023/10/06 06:31:49;;;;;;;11.65;11.15;;;;;;;;;;5081437;28;20020;-66
2023/10/06 06:34:16;;;;;;;11.90;11.40;;;;;;;;;;5093440;28;20070;-67
2023/10/06 06:36:42;;;;;;;11.63;11.13;;;;;;;;;;5097854;28;20459;-67
2023/10/06 06:39:10;;;;;;;14.38;13.68;;;;;;;;;;5093099;28;20047;-69
2023/10/06 06:41:35;;;;;;;12.43;11.82;;;;;;;;;;5076647;28;20524;-66
2023/10/06 06:44:01;;;;;;;11.90;11.40;;;;;;;;;;5096017;28;20032;-66
2023/10/06 06:46:26;;;;;;;12.00;11.50;;;;;;;;;;5101787;28;20027;-68
2023/10/06 06:48:52;;;;;;;12.07;11.57;;;;;;;;;;5080059;28;20026;-66
2023/10/06 06:51:18;;;;;;;11.98;11.48;;;;;;;;;;5083670;28;20450;-67
2023/10/06 06:53:43;;;;;;;12.15;11.65;;;;;;;;;;5100536;28;20390;-67
2023/10/06 06:56:10;;;;;;;11.80;11.30;;;;;;;;;;5102598;27;20031;-67
2023/10/06 06:58:37;;;;;;;11.77;11.27;;;;;;;;;;5101830;28;20031;-67
2023/10/06 07:01:05;;;;;;;12.05;11.55;;;;;;;;;;5100519;27;20032;-68
2023/10/06 07:03:30;;;;;;;12.07;11.57;;;;;;;;;;5095757;27;20492;-69
2023/10/06 07:05:56;;;;;;;11.98;11.48;;;;;;;;;;5106450;27;20135;-68
2023/10/06 07:08:21;;;;;;;12.05;11.55;;;;;;;;;;5102538;27;20041;-68
2023/10/06 07:10:52;;;;;;;11.82;11.32;;;;;;;;;;5104359;27;20107;-69
2023/10/06 07:13:17;;;;;;;12.10;11.60;;;;;;;;;;5098793;27;20084;-66
2023/10/06 07:15:43;;;;;;;11.90;11.40;;;;;;;;;;5100996;27;20496;-67
2023/10/06 07:18:10;;;;;;;12.32;11.82;;;;;;;;;;5092994;27;20138;-65
2023/10/06 07:20:35;;;;;;;12.23;11.73;;;;;;;;;;5097736;28;20038;-66
2023/10/06 07:23:01;;;;;;;11.88;11.38;;;;;;;;;;5099597;27;20024;-66
2023/10/06 07:25:27;;;;;;;12.15;11.65;;;;;;;;;;5098205;28;20039;-66
2023/10/06 07:27:55;;;;;;;12.00;11.50;;;;;;;;;;5097486;28;20019;-66
2023/10/06 07:30:22;;;;;;;12.35;11.85;;;;;;;;;;5097930;27;20498;-67
2023/10/06 07:32:48;;;;;;;12.05;11.55;;;;;;;;;;5102524;27;20024;-67
2023/10/06 07:35:15;;;;;;;12.20;11.70;;;;;;;;;;5087981;28;20490;-67
2023/10/06 07:37:44;;;;;;;12.18;11.68;;;;;;;;;;5090565;28;20035;-67
2023/10/06 07:40:13;;;;;;;12.18;11.68;;;;;;;;;;5090714;28;20118;-66
2023/10/06 07:42:45;;;;;;;12.60;11.90;;;;;;;;;;5107604;27;20035;-67
2023/10/06 07:45:10;;;;;;;12.20;11.70;;;;;;;;;;5095342;27;20847;-67
2023/10/06 07:47:36;;;;;;;12.00;11.50;;;;;;;;;;5098905;28;20027;-67
2023/10/06 07:50:04;;;;;;;11.95;11.45;;;;;;;;;;5096621;27;20120;-67
2023/10/06 07:52:30;;;;;;;12.25;11.75;;;;;;;;;;5101935;28;20035;-66
2023/10/06 07:54:56;;;;;;;12.02;11.52;;;;;;;;;;5104525;27;20036;-66
2023/10/06 07:57:22;;;;;;;12.10;11.60;;;;;;;;;;5083376;28;20027;-67
2023/10/06 07:59:48;;;;;;;12.20;11.70;;;;;;;;;;5106643;27;20367;-68
2023/10/06 08:02:14;;;;;;;11.88;11.38;;;;;;;;;;5082824;28;20480;-67
2023/10/06 08:04:39;;;;;;;12.20;11.70;;;;;;;;;;5100064;27;20038;-67
2023/10/06 08:07:05;;;;;;;11.77;11.27;;;;;;;;;;5104935;27;20127;-66
2023/10/06 08:09:33;;;;;;;12.07;11.57;;;;;;;;;;5097936;27;20287;-67
2023/10/06 08:11:59;;;;;;;12.07;11.57;;;;;;;;;;5104914;27;20478;-67
2023/10/06 08:14:25;;;;;;;12.07;11.57;;;;;;;;;;5098809;27;20315;-67
2023/10/06 08:16:50;;;;;;;11.80;11.30;;;;;;;;;;5101715;27;20020;-67
2023/10/06 08:19:15;;;;;;;12.57;11.98;;;;;;;;;;5103348;27;20103;-67
2023/10/06 08:21:41;;;;;;;12.32;11.82;;;;;;;;;;5103168;27;20470;-68
2023/10/06 08:24:07;;;;;;;12.60;12.00;;;;;;;;;;5101840;27;20046;-67
2023/10/06 08:26:33;;;;;;;12.20;11.70;;;;;;;;;;5102769;27;20059;-67
2023/10/06 08:28:59;;;;;;;12.45;11.90;;;;;;;;;;5100245;28;20035;-67
2023/10/06 08:31:26;;;;;;;12.25;11.75;;;;;;;;;;5076975;28;20634;-68
2023/10/06 08:33:51;;;;;;;12.15;11.65;;;;;;;;;;5096985;28;20081;-66
2023/10/06 08:36:17;;;;;;;12.98;12.38;;;;;;;;;;5099642;28;20027;-68
2023/10/06 08:38:46;;;;;;;12.80;12.20;;;;;;;;;;5095987;27;20415;-68
2023/10/06 08:41:13;;;;;;;13.05;12.45;;;;;;;;;;5091392;28;20237;-68
2023/10/06 08:43:38;;;;;;;13.02;12.43;;;;;;;;;;5080844;28;20058;-69
2023/10/06 08:46:04;;;;;;;13.02;12.43;;;;;;;;;;5081218;27;20043;-68
2023/10/06 08:48:30;;;;;;;13.13;12.52;;;;;;;;;;5083138;28;20026;-66
2023/10/06 08:50:58;;;;;;;12.68;12.07;;;;;;;;;;5097705;27;20039;-66
2023/10/06 08:53:24;;;;;;;12.60;12.00;;;;;;;;;;5078596;28;20040;-66
2023/10/06 08:55:50;;;;;;;12.75;12.15;;;;;;;;;;5089960;28;20023;-68
2023/10/06 08:58:17;;;;;;;12.43;11.85;;;;;;;;;;5094718;28;20031;-66
2023/10/06 09:00:43;;;;;;;12.43;11.82;;;;;;;;;;5091152;27;20031;-67
2023/10/06 09:03:11;;;;;;;12.30;11.80;;;;;;;;;;5097652;28;20028;-67
2023/10/06 09:05:40;;;;;;;12.57;11.98;;;;;;;;;;5094718;28;20075;-67
2023/10/06 09:08:05;;;;;;;12.40;11.85;;;;;;;;;;5098803;27;20089;-69
2023/10/06 09:10:34;;;;;;;12.57;11.98;;;;;;;;;;5097982;27;20027;-68
2023/10/06 09:13:04;;;;;;;12.32;11.82;;;;;;;;;;5104820;27;20034;-67
2023/10/06 09:15:30;;;;;;;12.60;12.00;;;;;;;;;;5100718;27;20428;-67
2023/10/06 09:17:56;;;;;;;12.43;11.85;;;;;;;;;;5083508;27;20031;-67
2023/10/06 09:20:30;;;;;;;12.43;11.85;;;;;;;;;;5081205;28;20031;-70
2023/10/06 09:22:55;;;;;;;12.95;12.35;;;;;;;;;;5095573;28;20019;-68
2023/10/06 09:25:21;;;;;;;12.50;11.90;;;;;;;;;;5097356;27;20558;-66
2023/10/06 09:27:48;;;;;;;12.95;12.35;;;;;;;;;;5098572;28;20470;-68
2023/10/06 09:30:20;;;;;;;12.52;11.93;;;;;;;;;;5096362;27;20673;-65
2023/10/06 09:32:45;;;;;;;12.82;12.23;;;;;;;;;;5097688;28;20398;-66
2023/10/06 09:35:20;;;;;;;12.85;12.25;;;;;;;;;;5095483;27;20024;-67
2023/10/06 09:37:46;;;;;;;12.93;12.32;;;;;;;;;;5096473;27;20347;-67
2023/10/06 09:40:21;;;;;;;12.75;12.15;;;;;;;;;;5076825;28;20111;-66
2023/10/06 09:42:50;;;;;;;11.90;11.40;;;;;;;;;;5088155;28;20019;-68
2023/10/06 09:45:21;;;;;;;12.00;11.50;;;;;;;;;;5099808;28;20471;-67
2023/10/06 09:47:50;;;;;;;13.38;12.77;;;;;;;;;;5101980;28;20031;-66
2023/10/06 09:50:17;;;;;;;13.30;12.70;;;;;;;;;;5087467;27;20458;-66
2023/10/06 09:52:44;;;;;;;12.77;12.18;;;;;;;;;;5083212;28;20031;-62
2023/10/06 09:55:12;;;;;;;12.95;12.35;;;;;;;;;;5097696;28;20031;-64
2023/10/06 09:57:39;;;;;;;12.18;11.63;;;;;;;;;;5100433;27;20027;-64
2023/10/06 10:00:15;;;;;;;12.75;12.15;;;;;;;;;;5097206;28;20027;-64
2023/10/06 10:02:44;;;;;;;12.82;12.23;;;;;;;;;;5099886;28;20126;-63
2023/10/06 10:05:11;;;;;;;13.32;12.73;;;;;;;;;;5097224;27;20015;-67
2023/10/06 10:07:38;;;;;;;13.07;12.48;;;;;;;;;;5100742;27;20051;-64
2023/10/06 10:10:05;;;;;;;12.32;11.73;;;;;;;;;;5099637;27;20032;-65
2023/10/06 10:12:37;;;;;;;12.75;12.15;;;;;;;;;;5096683;27;20028;-63
2023/10/06 10:15:16;;;;;;;12.32;11.73;;;;;;;;;;5095886;27;20072;-62
2023/10/06 10:17:47;;;;;;;13.73;13.10;;;;;;;;;;5098336;27;20031;-63
2023/10/06 10:20:15;;;;;;;12.77;12.18;;;;;;;;;;5101246;27;20055;-65
2023/10/06 10:22:42;;;;;;;12.77;12.18;;;;;;;;;;5097066;28;20020;-65
2023/10/06 10:25:08;;;;;;;12.52;11.93;;;;;;;;;;5101045;28;20047;-64
2023/10/06 10:27:37;;;;;;;13.50;12.90;;;;;;;;;;5097760;28;20131;-64
2023/10/06 10:30:10;;;;;;;14.20;13.50;;;;;;;;;;5091921;28;20113;-65
2023/10/06 10:32:41;;;;;;;13.15;12.55;;;;;;;;;;5092096;28;20146;-66
2023/10/06 10:35:16;;;;;;;12.93;12.32;;;;;;;;;;5098746;28;20591;-63
2023/10/06 10:37:51;;;;;;;12.85;12.25;;;;;;;;;;5094034;28;20031;-63
2023/10/06 10:40:20;;;;;;;12.65;12.05;;;;;;;;;;5100590;28;20172;-65
2023/10/06 10:42:45;;;;;;;12.80;12.20;;;;;;;;;;5091426;28;20044;-63
2023/10/06 10:45:47;;;;;;;13.32;12.73;;;;;;;;;;5095664;28;20055;-63
2023/10/06 10:48:13;;;;;;;12.00;11.48;;;;;;;;;;5038729;28;20043;-66
2023/10/06 10:51:05;;;;;;;12.90;12.30;;;;;;;;;;5084465;28;20466;-65
2023/10/06 10:53:47;;;;;;;12.50;11.90;;;;;;;;;;5095349;28;20072;-64
2023/10/06 10:56:26;;;;;;;12.02;11.50;;;;;;;;;;5098943;28;20102;-67
2023/10/06 10:58:53;;;;;;;13.27;12.68;;;;;;;;;;5089131;28;20032;-64
2023/10/06 11:01:44;;;;;;;13.63;12.98;;;;;;;;;;5098151;28;20125;-64
2023/10/06 11:04:09;;;;;;;13.18;12.57;;;;;;;;;;5096976;28;20112;-63
2023/10/06 11:06:38;;;;;;;12.13;11.57;;;;;;;;;;5103632;28;20140;-63
2023/10/06 11:09:12;;;;;;;12.80;12.20;;;;;;;;;;5091808;28;20027;-65
2023/10/06 11:11:38;;;;;;;;;;;;;;;;;;5101999;28;20024;-64
2023/10/06 11:14:03;;;;;;;13.00;12.40;;;;;;;;;;5098258;28;19908;-64
2023/10/06 11:16:29;;;;;;;12.60;12.00;;;;;;;;;;5096772;28;20042;-63
2023/10/06 11:18:56;;;;;;;12.00;11.50;;;;;;;;;;5099467;28;20248;-64
2023/10/06 11:21:27;;;;;;;12.85;12.25;;;;;;;;;;5098726;28;20106;-63
2023/10/06 11:23:53;;;;;;;13.10;12.50;;;;;;;;;;5078108;28;20034;-64
2023/10/06 11:26:28;;;;;;;13.30;12.70;;;;;;;;;;5093395;28;20019;-67
2023/10/06 11:28:53;;;;;;;13.20;12.60;;;;;;;;;;5071391;28;20020;-66
2023/10/06 11:31:19;;;;;;;12.93;12.32;;;;;;;;;;5099828;28;20604;-63
2023/10/06 11:33:44;;;;;;;12.77;12.18;;;;;;;;;;5099071;28;20023;-64
2023/10/06 11:36:09;;;;;;;12.82;12.23;;;;;;;;;;5096006;28;20023;-63
2023/10/06 11:38:36;;;;;;;12.30;11.70;;;;;;;;;;5079902;28;20385;-64
2023/10/06 11:41:01;;;;;;;11.55;11.05;;;;;;;;;;5083503;27;20111;-69
2023/10/06 11:43:30;;;;;;;12.80;12.20;;;;;;;;;;5099531;27;20039;-71
2023/10/06 11:46:07;;;;;;;12.98;12.38;;;;;;;;;;5092083;28;20110;-67
2023/10/06 11:48:35;;;;;;;12.57;11.98;;;;;;;;;;5099713;27;20030;-68
2023/10/06 11:51:08;;;;;;;11.65;11.15;;;;;;;;;;5084805;28;20027;-67
2023/10/06 11:53:34;;;;;;;11.48;10.98;;;;;;;;;;5106401;27;20070;-67
2023/10/06 11:56:13;;;;;;;11.50;11.00;;;;;;;;;;5101101;28;20677;-68
2023/10/06 11:58:42;;;;;;;11.60;11.10;;;;;;;;;;5088570;27;20048;-67
2023/10/06 12:01:32;;;;;;;13.10;12.50;;;;;;;;;;5103434;28;20080;-67
2023/10/06 12:04:01;;;;;;;11.30;10.80;;;;;;;;;;5106724;27;20023;-67
2023/10/06 12:06:35;;;;;;;11.70;11.20;;;;;;;;;;5104559;28;20380;-67
2023/10/06 12:09:02;;;;;;;11.88;11.38;;;;;;;;;;5104229;28;20019;-67
2023/10/06 12:11:28;;;;;;;11.73;11.23;;;;;;;;;;5091240;28;20047;-67
2023/10/06 12:13:53;;;;;;;11.73;11.23;;;;;;;;;;5086711;28;20035;-67
2023/10/06 12:16:19;;;;;;;11.60;11.10;;;;;;;;;;5105726;28;20024;-67
2023/10/06 12:18:44;;;;;;;11.15;10.65;;;;;;;;;;5103506;28;20074;-66
2023/10/06 12:21:11;;;;;;;11.50;11.00;;;;;;;;;;5101727;28;20027;-68
2023/10/06 12:23:37;;;;;;;11.55;11.05;;;;;;;;;;5086491;28;20051;-67
2023/10/06 12:26:03;;;;;;;11.48;10.98;;;;;;;;;;5101809;28;20098;-67
2023/10/06 12:28:28;;;;;;;11.80;11.30;;;;;;;;;;5100418;27;20530;-67
2023/10/06 12:30:54;;;;;;;11.48;10.98;;;;;;;;;;5104371;27;20026;-64
2023/10/06 12:33:19;;;;;;;11.85;11.35;;;;;;;;;;5106599;27;20027;-66
2023/10/06 12:35:45;;;;;;;11.43;10.93;;;;;;;;;;5106619;28;20179;-67
2023/10/06 12:38:10;;;;;;;11.77;11.27;;;;;;;;;;5097778;28;20020;-67
2023/10/06 12:40:38;;;;;;;12.05;11.55;;;;;;;;;;5106003;28;20226;-66
2023/10/06 12:43:03;;;;;;;11.35;10.85;;;;;;;;;;5105678;28;20068;-68
2023/10/06 12:45:29;;;;;;;11.90;11.40;;;;;;;;;;5102930;27;20098;-67
2023/10/06 12:47:54;;;;;;;11.90;11.40;;;;;;;;;;5100073;27;20120;-68
2023/10/06 12:50:20;;;;;;;11.70;11.20;;;;;;;;;;5104181;27;20035;-67
2023/10/06 12:52:55;;;;;;;11.70;11.20;;;;;;;;;;5103848;27;20031;-67
2023/10/06 12:55:27;;;;;;;11.60;11.10;;;;;;;;;;5105295;27;20012;-67
2023/10/06 12:57:53;;;;;;;11.95;11.45;;;;;;;;;;5087127;28;20483;-67
2023/10/06 13:00:19;;;;;;;11.45;10.95;;;;;;;;;;5080650;28;20023;-67
2023/10/06 13:02:45;;;;;;;11.15;10.65;;;;;;;;;;5095930;27;20047;-66
2023/10/06 13:05:22;;;;;;;12.35;11.77;;;;;;;;;;5100440;27;20499;-67
2023/10/06 13:07:48;;;;;;;11.80;11.30;;;;;;;;;;5083753;28;20578;-65
2023/10/06 13:10:15;;;;;;;11.80;11.30;;;;;;;;;;5097165;27;20051;-66
2023/10/06 13:12:41;;;;;;;11.60;11.10;;;;;;;;;;5097525;28;20019;-66
2023/10/06 13:15:12;;;;;;;11.57;11.07;;;;;;;;;;5098755;27;20044;-66
2023/10/06 13:17:38;;;;;;;11.55;11.05;;;;;;;;;;5108525;27;20028;-66
2023/10/06 13:20:08;;;;;;;11.48;10.98;;;;;;;;;;5097744;28;20592;-66
2023/10/06 13:22:36;;;;;;;11.10;10.60;;;;;;;;;;5096047;27;20157;-68
2023/10/06 13:25:02;;;;;;;11.15;10.65;;;;;;;;;;5098766;27;20036;-67
2023/10/06 13:27:28;;;;;;;11.27;10.77;;;;;;;;;;5108803;27;20026;-66
2023/10/06 13:29:55;;;;;;;11.50;11.00;;;;;;;;;;5086169;28;20419;-67
2023/10/06 13:32:21;;;;;;;12.63;12.02;;;;;;;;;;5086567;27;20925;-63
2023/10/06 13:34:47;;;;;;;12.40;11.80;;;;;;;;;;5097261;28;20046;-64
2023/10/06 13:37:14;;;;;;;12.77;12.18;;;;;;;;;;5090378;27;20133;-64
2023/10/06 13:39:39;;;;;;;11.45;10.95;;;;;;;;;;5097774;27;20027;-64
2023/10/06 13:42:05;;;;;;;11.65;11.15;;;;;;;;;;5102329;27;20034;-65
2023/10/06 13:44:31;;;;;;;12.25;11.65;;;;;;;;;;5104920;27;20023;-63
2023/10/06 13:46:56;;;;;;;12.57;11.98;;;;;;;;;;5094620;27;20353;-64
2023/10/06 13:49:22;;;;;;;12.02;11.50;;;;;;;;;;5102637;27;20036;-63
2023/10/06 13:51:47;;;;;;;12.45;11.85;;;;;;;;;;5099394;27;20386;-63
2023/10/06 13:54:13;;;;;;;12.27;11.68;;;;;;;;;;5101652;27;20155;-64
2023/10/06 13:56:39;;;;;;;12.65;12.05;;;;;;;;;;5101047;27;20031;-63
2023/10/06 13:59:04;;;;;;;12.30;11.70;;;;;;;;;;5102253;27;20077;-64
2023/10/06 14:01:33;;;;;;;12.57;11.98;;;;;;;;;;5100106;27;20089;-64
2023/10/06 14:03:58;;;;;;;13.00;12.40;;;;;;;;;;5098277;27;20028;-64
2023/10/06 14:06:24;;;;;;;12.30;11.70;;;;;;;;;;5105935;27;20556;-66
2023/10/06 14:08:49;;;;;;;11.80;11.30;;;;;;;;;;5100013;28;20068;-64
2023/10/06 14:11:15;;;;;;;12.55;11.95;;;;;;;;;;5096974;28;20028;-62
2023/10/06 14:13:44;;;;;;;13.90;13.23;;;;;;;;;;5095868;28;20039;-64
2023/10/06 14:16:09;;;;;;;12.75;12.15;;;;;;;;;;5093138;28;20039;-63
2023/10/06 14:18:38;;;;;;;13.32;12.73;;;;;;;;;;5083833;28;20028;-65
2023/10/06 14:21:07;;;;;;;12.38;11.77;;;;;;;;;;5101161;28;20026;-63
2023/10/06 14:23:35;;;;;;;11.50;11.00;;;;;;;;;;5088908;28;20473;-63
2023/10/06 14:26:01;;;;;;;12.25;11.65;;;;;;;;;;5098298;27;20027;-65
2023/10/06 14:28:28;;;;;;;12.10;11.50;;;;;;;;;;5099161;28;20047;-63